Time;durP1;ratioP1;P1;durP2;ratioP2;P2;SDS_P1;SDS_P2;PMS_P1;PMS_P2;Temp;Humidity;BMP_temperature;BMP_pressure;BME280_temperature;BME280_humidity;BME280_pressure;Samples;Min_cycle;Max_cycle;Signal;HPM_P1;HPM_P2
2022/03/06 00:00:18;;;;;;;15.60;11.95;;;0.40;99.90;;;;;;5064604;28;20040;-70
2022/03/06 00:02:44;;;;;;;15.02;11.05;;;0.40;99.90;;;;;;5065400;28;20064;-70
2022/03/06 00:05:10;;;;;;;16.40;11.45;;;0.70;99.90;;;;;;5097038;28;20040;-70
2022/03/06 00:07:35;;;;;;;15.13;11.77;;;0.50;99.90;;;;;;5097302;28;20048;-70
2022/03/06 00:10:03;;;;;;;15.30;11.75;;;0.50;99.90;;;;;;5065802;28;20076;-70
2022/03/06 00:12:28;;;;;;;13.23;11.50;;;0.50;99.90;;;;;;5096165;28;20123;-70
2022/03/06 00:14:54;;;;;;;14.45;11.85;;;0.40;99.90;;;;;;5064262;28;20155;-70
2022/03/06 00:17:19;;;;;;;13.30;10.68;;;0.40;99.90;;;;;;5061073;28;20103;-70
2022/03/06 00:19:45;;;;;;;15.93;12.20;;;0.60;99.90;;;;;;5066726;28;20040;-70
2022/03/06 00:22:11;;;;;;;13.10;11.35;;;0.40;99.90;;;;;;5066142;28;20036;-70
2022/03/06 00:24:36;;;;;;;17.10;11.43;;;0.40;99.90;;;;;;5065178;28;20042;-70
2022/03/06 00:27:02;;;;;;;17.67;11.57;;;0.70;99.90;;;;;;5066597;28;20082;-70
2022/03/06 00:29:28;;;;;;;14.45;11.00;;;0.40;99.90;;;;;;5065186;28;20118;-70
2022/03/06 00:31:53;;;;;;;16.08;11.85;;;0.40;99.90;;;;;;5096044;28;20040;-70
2022/03/06 00:34:19;;;;;;;12.95;10.98;;;0.50;99.90;;;;;;5067317;28;20124;-70
2022/03/06 00:36:44;;;;;;;17.38;11.68;;;0.40;99.90;;;;;;5066165;28;20044;-70
2022/03/06 00:39:10;;;;;;;15.13;12.45;;;0.40;99.90;;;;;;5065267;28;20423;-70
2022/03/06 00:41:35;;;;;;;23.95;15.35;;;0.50;99.90;;;;;;5063866;28;20056;-70
2022/03/06 00:44:01;;;;;;;19.95;15.05;;;0.50;99.90;;;;;;5061182;28;20040;-70
2022/03/06 00:46:27;;;;;;;16.45;13.70;;;0.50;99.90;;;;;;5062214;28;20036;-70
2022/03/06 00:48:52;;;;;;;16.48;12.52;;;0.40;99.90;;;;;;5065159;28;20551;-70
2022/03/06 00:51:18;;;;;;;17.40;13.30;;;0.50;99.90;;;;;;5069748;28;20044;-70
2022/03/06 00:53:43;;;;;;;18.13;13.02;;;0.50;99.90;;;;;;5071197;28;20032;-70
2022/03/06 00:56:09;;;;;;;20.55;14.07;;;0.50;99.90;;;;;;5068694;28;20032;-70
2022/03/06 00:58:37;;;;;;;18.23;12.52;;;0.50;99.90;;;;;;5070532;28;20132;-70
2022/03/06 01:01:04;;;;;;;19.55;12.63;;;0.60;99.90;;;;;;5067791;28;20040;-70
2022/03/06 01:03:31;;;;;;;17.10;11.48;;;0.60;99.90;;;;;;5068421;28;20119;-70
2022/03/06 01:05:56;;;;;;;16.45;13.93;;;0.60;99.90;;;;;;5068579;28;20045;-70
2022/03/06 01:08:22;;;;;;;16.25;12.38;;;0.60;99.90;;;;;;5070343;28;20024;-70
2022/03/06 01:10:48;;;;;;;18.95;11.98;;;0.70;99.90;;;;;;5069426;28;20039;-70
2022/03/06 01:13:15;;;;;;;13.48;10.70;;;0.60;99.90;;;;;;5068926;28;20485;-70
2022/03/06 01:15:41;;;;;;;20.67;12.20;;;0.70;99.90;;;;;;5073377;28;20036;-70
2022/03/06 01:18:07;;;;;;;14.48;10.75;;;0.70;99.90;;;;;;5068200;28;20089;-70
2022/03/06 01:20:37;;;;;;;15.57;12.45;;;0.70;99.90;;;;;;5067975;28;21754;-70
2022/03/06 01:23:03;;;;;;;16.73;11.20;;;0.90;99.90;;;;;;5068825;28;20051;-70
2022/03/06 01:25:29;;;;;;;12.95;10.77;;;0.70;99.90;;;;;;5069885;28;20052;-70
2022/03/06 01:27:55;;;;;;;13.68;10.90;;;0.80;99.90;;;;;;5069175;28;20036;-70
2022/03/06 01:30:21;;;;;;;12.65;9.80;;;0.80;99.90;;;;;;5067496;28;20033;-71
2022/03/06 01:32:48;;;;;;;11.75;10.52;;;0.80;99.90;;;;;;5068882;28;20040;-70
2022/03/06 01:35:14;;;;;;;14.20;10.13;;;0.90;99.90;;;;;;5069057;28;20047;-70
2022/03/06 01:37:40;;;;;;;14.63;9.85;;;0.90;99.90;;;;;;5068519;28;20103;-70
2022/03/06 01:40:07;;;;;;;14.18;10.25;;;0.90;99.90;;;;;;5070560;28;20509;-70
2022/03/06 01:42:33;;;;;;;16.63;9.55;;;0.90;99.90;;;;;;5067534;28;20068;-70
2022/03/06 01:44:59;;;;;;;15.98;10.45;;;0.90;99.90;;;;;;5069561;28;20069;-70
2022/03/06 01:47:31;;;;;;;12.98;10.63;;;1.00;99.90;;;;;;5068744;28;20582;-70
2022/03/06 01:49:56;;;;;;;15.23;11.07;;;1.00;99.90;;;;;;5067679;28;20045;-70
2022/03/06 01:52:22;;;;;;;12.30;9.48;;;1.00;99.90;;;;;;5068393;28;20056;-70
2022/03/06 01:54:48;;;;;;;13.27;9.55;;;1.00;99.90;;;;;;5068814;28;20032;-70
2022/03/06 01:57:13;;;;;;;15.07;10.40;;;1.00;99.90;;;;;;5070000;28;20361;-70
2022/03/06 01:59:39;;;;;;;14.38;10.02;;;1.10;99.90;;;;;;5067333;28;20084;-70
2022/03/06 02:02:05;;;;;;;11.07;8.63;;;1.00;99.90;;;;;;5064411;28;20037;-70
2022/03/06 02:04:30;;;;;;;13.48;9.88;;;1.00;99.90;;;;;;5067376;28;20090;-70
2022/03/06 02:06:56;;;;;;;13.43;10.02;;;1.10;99.90;;;;;;5065992;28;20044;-70
2022/03/06 02:09:22;;;;;;;12.82;9.40;;;1.10;99.90;;;;;;5094028;28;20059;-70
2022/03/06 02:12:18;;;;;;;11.30;9.40;;;1.10;99.90;;;;;;5067138;28;20418;-70
2022/03/06 02:14:33;;;;;;;12.63;9.35;;;1.20;99.90;;;;;;5066873;28;20479;-70
2022/03/06 02:16:59;;;;;;;16.17;9.13;;;1.20;99.90;;;;;;5070262;28;20134;-70
2022/03/06 02:19:24;;;;;;;14.38;9.48;;;1.20;99.90;;;;;;5066367;28;20131;-70
2022/03/06 02:21:50;;;;;;;12.13;9.13;;;1.20;99.90;;;;;;5067718;28;20044;-70
2022/03/06 02:24:15;;;;;;;13.63;9.02;;;1.20;99.90;;;;;;5068904;28;20070;-70
2022/03/06 02:26:41;;;;;;;12.98;8.68;;;1.20;99.90;;;;;;5067082;28;20040;-70
2022/03/06 02:29:07;;;;;;;11.82;9.32;;;1.20;99.90;;;;;;5064388;28;20124;-70
2022/03/06 02:31:33;;;;;;;11.18;8.88;;;1.20;99.90;;;;;;5068607;28;20049;-70
2022/03/06 02:33:58;;;;;;;14.43;9.18;;;1.20;99.90;;;;;;5067851;28;20037;-70
2022/03/06 02:36:24;;;;;;;13.38;8.65;;;1.40;99.90;;;;;;5068173;28;20090;-70
2022/03/06 02:38:50;;;;;;;11.65;8.65;;;1.20;99.90;;;;;;5066027;28;20032;-70
2022/03/06 02:41:17;;;;;;;10.35;8.18;;;1.20;99.90;;;;;;5069678;28;20041;-70
2022/03/06 02:43:43;;;;;;;15.18;9.35;;;1.30;99.90;;;;;;5067379;28;20132;-70
2022/03/06 02:46:09;;;;;;;14.32;8.57;;;1.30;99.90;;;;;;5069053;28;20040;-70
2022/03/06 02:48:34;;;;;;;12.18;8.32;;;1.30;99.90;;;;;;5067967;28;20620;-70
2022/03/06 02:51:00;;;;;;;11.30;7.95;;;1.40;99.90;;;;;;5063229;28;20045;-70
2022/03/06 02:53:25;;;;;;;12.68;8.07;;;1.30;99.90;;;;;;5067723;28;20036;-70
2022/03/06 02:55:51;;;;;;;14.52;7.70;;;1.20;99.90;;;;;;5067020;28;20040;-70
2022/03/06 02:58:17;;;;;;;11.20;7.82;;;1.20;99.90;;;;;;5067143;28;20044;-70
2022/03/06 03:00:43;;;;;;;12.52;7.88;;;1.20;99.90;;;;;;5066987;28;20067;-70
2022/03/06 03:03:09;;;;;;;12.05;8.25;;;1.20;99.90;;;;;;5066353;28;20147;-70
2022/03/06 03:05:35;;;;;;;12.27;8.48;;;1.20;99.90;;;;;;5067099;28;20127;-70
2022/03/06 03:08:00;;;;;;;11.48;7.72;;;1.10;99.90;;;;;;5066204;28;20040;-70
2022/03/06 03:10:26;;;;;;;10.63;7.15;;;1.10;99.90;;;;;;5098048;28;20037;-70
2022/03/06 03:12:53;;;;;;;12.50;7.95;;;1.10;99.90;;;;;;5066918;28;20090;-70
2022/03/06 03:15:19;;;;;;;10.13;7.60;;;1.10;99.90;;;;;;5067077;28;20040;-70
2022/03/06 03:17:46;;;;;;;11.85;6.93;;;1.10;99.90;;;;;;5066787;28;20070;-70
2022/03/06 03:20:13;;;;;;;9.52;7.22;;;1.00;99.90;;;;;;5066084;28;20044;-70
2022/03/06 03:22:39;;;;;;;9.80;7.57;;;1.10;99.90;;;;;;5066565;28;20118;-70
2022/03/06 03:25:06;;;;;;;9.38;7.13;;;1.00;99.90;;;;;;5066975;28;20036;-70
2022/03/06 03:27:31;;;;;;;10.35;7.20;;;0.90;99.90;;;;;;5065271;28;20056;-70
2022/03/06 03:29:57;;;;;;;12.10;8.23;;;0.80;99.90;;;;;;5064990;28;20047;-70
2022/03/06 03:32:23;;;;;;;11.80;7.25;;;0.80;99.90;;;;;;5095488;28;20041;-70
2022/03/06 03:34:48;;;;;;;11.13;6.32;;;0.80;99.90;;;;;;5066597;28;20043;-70
2022/03/06 03:37:14;;;;;;;8.18;6.18;;;0.80;99.90;;;;;;5067518;28;20495;-70
2022/03/06 03:39:39;;;;;;;9.25;6.75;;;0.80;99.90;;;;;;5066099;28;20070;-70
2022/03/06 03:42:05;;;;;;;9.02;7.53;;;0.80;99.90;;;;;;5066963;28;20043;-70
2022/03/06 03:44:31;;;;;;;8.98;6.30;;;0.80;99.90;;;;;;5067428;28;20032;-70
2022/03/06 03:46:58;;;;;;;10.38;6.93;;;0.70;99.90;;;;;;5069149;28;20044;-70
2022/03/06 03:49:23;;;;;;;9.70;6.70;;;0.70;99.90;;;;;;5065913;28;20048;-70
2022/03/06 03:51:49;;;;;;;8.68;6.88;;;0.70;99.90;;;;;;5067359;28;20055;-70
2022/03/06 03:54:15;;;;;;;10.00;6.68;;;0.70;99.90;;;;;;5066871;28;20094;-70
2022/03/06 03:56:42;;;;;;;13.40;6.75;;;0.70;99.90;;;;;;5066956;28;20102;-70
2022/03/06 03:59:08;;;;;;;8.27;5.95;;;0.60;99.90;;;;;;5065369;28;20035;-70
2022/03/06 04:01:33;;;;;;;12.65;7.38;;;0.70;99.90;;;;;;5067458;28;20491;-70
2022/03/06 04:03:59;;;;;;;9.73;6.90;;;0.90;99.90;;;;;;5067779;28;20037;-70
2022/03/06 04:06:25;;;;;;;9.27;6.60;;;0.60;99.90;;;;;;5068623;28;20035;-70
2022/03/06 04:08:50;;;;;;;10.45;5.68;;;0.60;99.90;;;;;;5066416;28;20040;-70
2022/03/06 04:11:17;;;;;;;10.95;6.25;;;0.60;99.90;;;;;;5049346;28;20472;-70
2022/03/06 04:13:43;;;;;;;9.27;5.78;;;0.60;99.90;;;;;;5092137;28;20040;-70
2022/03/06 04:16:09;;;;;;;10.50;5.90;;;0.60;99.90;;;;;;5064796;28;20056;-70
2022/03/06 04:18:35;;;;;;;10.05;5.43;;;0.60;99.90;;;;;;5065709;28;20137;-70
2022/03/06 04:21:00;;;;;;;12.80;5.85;;;0.60;99.90;;;;;;5067565;28;20161;-70
2022/03/06 04:23:26;;;;;;;10.90;5.32;;;0.50;99.90;;;;;;5068418;28;20487;-70
2022/03/06 04:25:51;;;;;;;11.43;5.40;;;0.50;99.90;;;;;;5068695;28;20131;-70
2022/03/06 04:28:17;;;;;;;11.02;4.45;;;0.80;99.90;;;;;;5071816;28;20131;-70
2022/03/06 04:30:43;;;;;;;11.13;4.90;;;0.80;99.90;;;;;;5068759;28;20048;-70
2022/03/06 04:33:08;;;;;;;8.93;4.85;;;0.50;99.90;;;;;;5068897;28;20056;-70
2022/03/06 04:35:34;;;;;;;6.50;4.57;;;0.50;99.90;;;;;;5068951;28;20044;-70
2022/03/06 04:38:00;;;;;;;7.13;5.00;;;0.50;99.90;;;;;;5075135;28;20040;-70
2022/03/06 04:40:26;;;;;;;7.28;4.43;;;0.50;99.90;;;;;;5068831;28;20029;-70
2022/03/06 04:42:51;;;;;;;8.57;4.65;;;0.50;99.90;;;;;;5068756;28;20040;-70
2022/03/06 04:45:17;;;;;;;8.90;4.95;;;0.40;99.90;;;;;;5070742;28;20125;-70
2022/03/06 04:47:42;;;;;;;7.22;4.97;;;0.40;99.90;;;;;;5070806;28;20632;-70
2022/03/06 04:50:08;;;;;;;7.57;4.30;;;0.70;99.90;;;;;;5068820;28;20051;-70
2022/03/06 04:52:34;;;;;;;6.70;4.15;;;0.40;99.90;;;;;;5070217;28;20046;-70
2022/03/06 04:55:00;;;;;;;9.45;4.50;;;0.40;99.90;;;;;;5070223;28;20415;-70
2022/03/06 04:57:25;;;;;;;5.95;4.03;;;0.50;99.90;;;;;;5067749;28;20041;-70
2022/03/06 04:59:51;;;;;;;7.25;4.00;;;0.40;99.90;;;;;;5067314;28;20044;-70
2022/03/06 05:02:17;;;;;;;7.63;4.40;;;0.40;99.90;;;;;;5067970;28;20044;-70
2022/03/06 05:04:42;;;;;;;7.30;4.30;;;0.40;99.90;;;;;;5068072;28;20475;-70
2022/03/06 05:07:08;;;;;;;6.05;3.95;;;0.40;99.90;;;;;;5067306;28;20049;-70
2022/03/06 05:09:34;;;;;;;10.65;4.70;;;0.40;99.90;;;;;;5066583;28;20059;-70
2022/03/06 05:11:59;;;;;;;6.07;3.85;;;0.40;99.90;;;;;;5095549;28;20171;-70
2022/03/06 05:14:25;;;;;;;7.28;4.43;;;0.40;99.90;;;;;;5069683;28;20040;-70
2022/03/06 05:16:50;;;;;;;6.88;3.85;;;0.70;99.90;;;;;;5066965;28;20039;-70
2022/03/06 05:19:16;;;;;;;7.50;4.30;;;0.30;99.90;;;;;;5069837;28;20043;-70
2022/03/06 05:21:42;;;;;;;7.50;4.10;;;0.30;99.90;;;;;;5069968;28;20079;-70
2022/03/06 05:24:07;;;;;;;13.88;6.07;;;0.30;99.90;;;;;;5070361;28;20039;-70
2022/03/06 05:26:33;;;;;;;9.52;4.38;;;0.40;99.90;;;;;;5070525;28;20041;-69
2022/03/06 05:28:59;;;;;;;7.15;4.20;;;0.30;99.90;;;;;;5069411;28;20044;-70
2022/03/06 05:31:24;;;;;;;9.23;4.97;;;0.30;99.90;;;;;;5069671;28;20127;-70
2022/03/06 05:33:50;;;;;;;8.20;4.00;;;0.30;99.90;;;;;;5070320;28;20043;-70
2022/03/06 05:36:17;;;;;;;9.00;4.28;;;0.30;99.90;;;;;;5068632;28;20170;-70
2022/03/06 05:38:44;;;;;;;9.43;4.35;;;0.30;99.90;;;;;;5068526;28;20446;-70
2022/03/06 05:41:09;;;;;;;10.30;4.40;;;0.30;99.90;;;;;;5069023;28;20041;-70
2022/03/06 05:43:35;;;;;;;7.15;4.00;;;0.30;99.90;;;;;;5067410;28;20376;-70
2022/03/06 05:46:02;;;;;;;6.90;3.80;;;0.20;99.90;;;;;;5098774;28;20048;-70
2022/03/06 05:48:27;;;;;;;6.80;4.07;;;0.20;99.90;;;;;;5075710;28;20046;-70
2022/03/06 05:50:53;;;;;;;10.68;4.43;;;0.30;99.90;;;;;;5068571;28;20036;-70
2022/03/06 05:53:20;;;;;;;5.78;4.05;;;0.20;99.90;;;;;;5073063;28;20040;-70
2022/03/06 05:55:46;;;;;;;8.38;3.95;;;0.20;99.90;;;;;;5067692;28;20092;-70
2022/03/06 05:58:12;;;;;;;6.35;4.40;;;0.30;99.90;;;;;;5068870;28;20071;-70
2022/03/06 06:00:38;;;;;;;4.63;3.60;;;0.20;99.90;;;;;;5069171;28;20060;-70
2022/03/06 06:03:03;;;;;;;8.65;4.15;;;0.20;99.90;;;;;;5069297;28;20136;-70
2022/03/06 06:05:29;;;;;;;10.15;3.63;;;0.20;99.90;;;;;;5066900;28;20079;-70
2022/03/06 06:07:55;;;;;;;8.32;3.30;;;0.10;99.90;;;;;;5069084;28;20483;-70
2022/03/06 06:10:20;;;;;;;6.25;3.80;;;0.40;99.90;;;;;;5050098;28;20041;-70
2022/03/06 06:12:46;;;;;;;6.93;3.92;;;0.20;99.90;;;;;;5067328;28;20044;-70
2022/03/06 06:15:12;;;;;;;5.75;3.78;;;0.20;99.90;;;;;;5070358;28;20448;-70
2022/03/06 06:17:38;;;;;;;8.68;3.83;;;0.10;99.90;;;;;;5078357;28;20088;-70
2022/03/06 06:20:07;;;;;;;6.85;4.18;;;0.20;99.90;;;;;;5068110;28;20120;-70
2022/03/06 06:22:33;;;;;;;5.35;3.30;;;0.20;99.90;;;;;;5097541;28;20052;-70
2022/03/06 06:24:59;;;;;;;6.22;3.42;;;0.10;99.90;;;;;;5067725;28;20180;-70
2022/03/06 06:27:26;;;;;;;5.20;3.33;;;0.10;99.90;;;;;;5068034;28;20547;-70
2022/03/06 06:29:53;;;;;;;5.72;3.50;;;0.20;99.90;;;;;;5068019;28;20151;-70
2022/03/06 06:32:18;;;;;;;6.10;3.53;;;0.30;99.90;;;;;;5062123;28;20457;-70
2022/03/06 06:34:45;;;;;;;5.53;3.38;;;0.10;99.90;;;;;;5068657;28;20029;-70
2022/03/06 06:37:11;;;;;;;7.00;3.90;;;0.10;99.90;;;;;;5067963;28;20112;-70
2022/03/06 06:39:36;;;;;;;5.70;3.50;;;0.10;99.90;;;;;;5069327;28;20502;-70
2022/03/06 06:42:03;;;;;;;6.90;3.22;;;0.20;99.90;;;;;;5066107;28;20044;-69
2022/03/06 06:44:30;;;;;;;7.78;2.85;;;0.10;99.90;;;;;;5069135;28;20045;-70
2022/03/06 06:46:56;;;;;;;6.40;3.25;;;0.10;99.90;;;;;;5067302;28;20784;-70
2022/03/06 06:49:22;;;;;;;5.18;3.13;;;0.20;99.90;;;;;;5067608;28;20048;-70
2022/03/06 06:51:48;;;;;;;5.10;3.33;;;0.20;99.90;;;;;;5067434;28;20620;-70
2022/03/06 06:54:15;;;;;;;7.28;3.00;;;0.50;99.90;;;;;;5071721;28;20055;-70
2022/03/06 06:56:41;;;;;;;5.13;2.50;;;0.40;99.90;;;;;;5067950;28;20064;-70
2022/03/06 06:59:07;;;;;;;6.70;2.65;;;0.20;99.90;;;;;;5068541;28;20032;-70
2022/03/06 07:01:32;;;;;;;4.40;2.72;;;0.20;99.90;;;;;;5070051;28;20085;-70
2022/03/06 07:03:58;;;;;;;4.15;2.50;;;0.30;99.90;;;;;;5067074;28;20074;-70
2022/03/06 07:06:24;;;;;;;5.15;2.55;;;0.30;99.90;;;;;;5064943;28;20144;-70
2022/03/06 07:08:49;;;;;;;5.10;2.60;;;0.40;99.90;;;;;;5062731;28;20032;-70
2022/03/06 07:11:15;;;;;;;5.40;2.60;;;0.40;99.90;;;;;;5066866;28;20455;-70
2022/03/06 07:13:40;;;;;;;7.28;2.65;;;0.40;99.90;;;;;;5067878;28;20040;-70
2022/03/06 07:16:06;;;;;;;5.63;2.65;;;0.40;99.90;;;;;;5068035;28;20045;-70
2022/03/06 07:18:32;;;;;;;5.72;2.50;;;0.40;99.90;;;;;;5067199;28;20032;-70
2022/03/06 07:20:57;;;;;;;8.05;3.35;;;0.40;99.90;;;;;;5065883;28;20483;-70
2022/03/06 07:23:23;;;;;;;4.03;2.55;;;0.50;99.90;;;;;;5065832;28;20041;-70
2022/03/06 07:25:49;;;;;;;5.60;2.50;;;0.60;99.90;;;;;;5064120;28;20044;-70
2022/03/06 07:28:15;;;;;;;5.10;2.60;;;0.60;99.90;;;;;;5059311;28;20048;-70
2022/03/06 07:30:40;;;;;;;5.45;2.78;;;0.70;99.90;;;;;;5095837;28;20403;-70
2022/03/06 07:33:06;;;;;;;4.80;2.35;;;0.70;99.90;;;;;;5065858;28;20119;-70
2022/03/06 07:35:32;;;;;;;5.93;2.28;;;0.90;99.90;;;;;;5065767;28;20045;-70
2022/03/06 07:37:58;;;;;;;4.65;2.22;;;0.90;99.90;;;;;;5064549;28;20060;-71
2022/03/06 07:40:24;;;;;;;6.32;2.20;;;1.00;99.90;;;;;;5064019;28;20048;-70
2022/03/06 07:42:50;;;;;;;3.92;2.35;;;1.20;99.90;;;;;;5067595;28;20445;-70
2022/03/06 07:45:18;;;;;;;3.33;1.98;;;1.20;99.90;;;;;;5064436;28;20063;-70
2022/03/06 07:47:43;;;;;;;3.53;1.90;;;1.20;99.90;;;;;;5064841;28;20079;-70
2022/03/06 07:50:13;;;;;;;4.50;2.22;;;1.30;99.90;;;;;;5066852;28;20075;-70
2022/03/06 07:52:40;;;;;;;4.10;2.35;;;1.50;99.90;;;;;;5064267;28;20611;-70
2022/03/06 07:55:07;;;;;;;2.60;1.73;;;1.40;99.90;;;;;;5066625;28;20107;-70
2022/03/06 07:57:34;;;;;;;3.08;1.75;;;1.50;99.90;;;;;;5066556;28;20033;-71
2022/03/06 07:59:59;;;;;;;4.95;1.85;;;1.60;99.90;;;;;;5071124;28;20037;-70
2022/03/06 08:02:25;;;;;;;5.20;1.90;;;1.60;99.90;;;;;;5061811;28;20055;-70
2022/03/06 08:04:52;;;;;;;6.35;1.83;;;1.70;99.90;;;;;;5064340;28;20049;-70
2022/03/06 08:07:17;;;;;;;3.78;1.55;;;1.80;99.90;;;;;;5070208;28;20341;-70
2022/03/06 08:09:43;;;;;;;3.85;1.83;;;1.80;99.90;;;;;;5069989;28;20086;-70
2022/03/06 08:12:09;;;;;;;4.00;1.50;;;1.80;99.90;;;;;;5068219;28;20044;-70
2022/03/06 08:14:34;;;;;;;3.95;2.00;;;1.80;99.90;;;;;;5069517;28;20075;-70
2022/03/06 08:17:00;;;;;;;2.75;1.30;;;2.00;99.90;;;;;;5070130;28;20048;-70
2022/03/06 08:19:26;;;;;;;3.15;1.23;;;2.00;99.90;;;;;;5055679;28;20028;-70
2022/03/06 08:21:52;;;;;;;4.03;1.38;;;2.00;99.90;;;;;;5070331;28;20052;-70
2022/03/06 08:24:17;;;;;;;3.53;1.30;;;2.10;99.90;;;;;;5068962;28;20045;-71
2022/03/06 08:26:44;;;;;;;4.07;1.60;;;2.20;99.90;;;;;;5070542;28;20497;-70
2022/03/06 08:29:10;;;;;;;4.70;1.35;;;2.20;99.90;;;;;;5069344;28;20044;-70
2022/03/06 08:31:35;;;;;;;4.68;1.55;;;2.30;99.90;;;;;;5071887;28;20036;-70
2022/03/06 08:34:02;;;;;;;3.53;1.10;;;2.30;99.90;;;;;;5073453;28;20549;-70
2022/03/06 08:36:27;;;;;;;2.95;1.10;;;2.40;99.90;;;;;;5067765;28;20045;-70
2022/03/06 08:38:53;;;;;;;3.15;1.33;;;2.40;99.90;;;;;;5068124;28;20036;-71
2022/03/06 08:41:19;;;;;;;2.60;1.08;;;2.50;99.90;;;;;;5069516;28;20096;-70
2022/03/06 08:43:45;;;;;;;3.97;1.27;;;2.60;99.90;;;;;;5069209;28;20025;-71
2022/03/06 08:46:10;;;;;;;3.33;1.17;;;2.80;99.90;;;;;;5066962;28;20036;-71
2022/03/06 08:48:37;;;;;;;1.77;0.90;;;2.70;99.90;;;;;;5065268;28;20040;-71
2022/03/06 08:51:06;;;;;;;3.40;1.10;;;2.80;99.90;;;;;;5070570;28;20043;-70
2022/03/06 08:53:33;;;;;;;2.63;0.90;;;2.80;99.90;;;;;;5098379;28;20049;-70
2022/03/06 08:55:59;;;;;;;3.80;1.35;;;2.90;99.90;;;;;;5069445;28;20499;-71
2022/03/06 08:58:26;;;;;;;2.65;1.02;;;3.00;99.90;;;;;;5072853;28;20045;-70
2022/03/06 09:00:52;;;;;;;4.15;0.80;;;3.20;99.90;;;;;;5069276;28;20033;-71
2022/03/06 09:03:17;;;;;;;2.75;1.20;;;3.20;99.90;;;;;;5068707;28;20052;-71
2022/03/06 09:05:43;;;;;;;1.90;0.80;;;3.30;99.90;;;;;;5072424;28;20589;-71
2022/03/06 09:08:09;;;;;;;3.92;0.80;;;3.30;98.90;;;;;;5055170;28;20041;-71
2022/03/06 09:10:36;;;;;;;4.38;1.20;;;3.30;99.20;;;;;;5068191;28;20044;-71
2022/03/06 09:13:02;;;;;;;2.40;0.98;;;3.40;99.10;;;;;;5065934;28;20221;-71
2022/03/06 09:15:28;;;;;;;2.05;0.95;;;3.60;99.20;;;;;;5069934;28;20091;-71
2022/03/06 09:17:54;;;;;;;3.53;1.50;;;3.60;96.60;;;;;;5063518;28;20484;-71
2022/03/06 09:20:19;;;;;;;2.40;0.82;;;3.60;97.30;;;;;;5070746;28;20037;-71
2022/03/06 09:22:46;;;;;;;2.58;1.00;;;3.60;96.60;;;;;;5069382;28;20036;-71
2022/03/06 09:25:12;;;;;;;3.53;1.10;;;3.60;93.40;;;;;;5099151;28;20040;-71
2022/03/06 09:27:38;;;;;;;2.47;0.80;;;3.60;93.50;;;;;;5066642;28;20047;-71
2022/03/06 09:30:05;;;;;;;2.28;1.10;;;3.70;94.00;;;;;;5068479;28;20127;-71
2022/03/06 09:32:30;;;;;;;3.45;0.93;;;3.80;95.70;;;;;;5099327;28;20400;-71
2022/03/06 09:34:56;;;;;;;3.25;0.80;;;3.90;95.90;;;;;;5067901;28;20112;-71
2022/03/06 09:37:22;;;;;;;2.72;1.15;;;3.90;93.80;;;;;;5065866;28;20037;-71
2022/03/06 09:39:48;;;;;;;2.88;1.13;;;4.00;93.50;;;;;;5068657;28;20464;-71
2022/03/06 09:42:17;;;;;;;3.60;0.82;;;3.90;92.70;;;;;;5069339;28;20487;-71
2022/03/06 09:44:46;;;;;;;2.92;1.10;;;4.00;92.50;;;;;;5069466;28;20044;-71
2022/03/06 09:47:12;;;;;;;2.40;1.05;;;4.00;91.30;;;;;;5065802;28;20040;-71
2022/03/06 09:49:38;;;;;;;6.20;1.05;;;4.10;92.40;;;;;;5068896;28;20716;-72
2022/03/06 09:52:04;;;;;;;7.72;0.93;;;4.00;91.50;;;;;;5068921;28;20131;-68
2022/03/06 09:54:30;;;;;;;5.10;1.23;;;4.20;93.10;;;;;;5065248;28;20033;-73
2022/03/06 09:56:55;;;;;;;4.38;0.80;;;4.20;91.10;;;;;;5072793;28;20041;-72
2022/03/06 09:59:21;;;;;;;2.08;0.77;;;4.10;90.70;;;;;;5070543;28;20040;-72
2022/03/06 10:01:46;;;;;;;2.10;1.00;;;4.20;92.80;;;;;;5067859;28;20047;-72
2022/03/06 10:04:32;;;;;;;3.53;0.85;;;4.30;91.90;;;;;;5051322;28;20105;-72
2022/03/06 10:07:09;;;;;;;3.10;1.00;;;4.10;89.20;;;;;;5102175;28;20048;-72
2022/03/06 10:09:45;;;;;;;2.40;1.23;;;4.20;90.70;;;;;;5067457;28;20041;-72
2022/03/06 10:12:19;;;;;;;4.63;1.20;;;4.30;92.10;;;;;;5068248;28;20055;-72
2022/03/06 10:14:46;;;;;;;2.83;0.88;;;4.50;91.60;;;;;;5063847;28;20048;-72
2022/03/06 10:17:21;;;;;;;5.65;0.77;;;4.50;91.10;;;;;;5078093;28;20047;-73
2022/03/06 10:19:55;;;;;;;5.10;1.00;;;4.40;90.10;;;;;;5069057;28;20043;-72
2022/03/06 10:22:24;;;;;;;4.40;1.30;;;4.50;89.70;;;;;;5068519;28;20070;-72
2022/03/06 10:24:55;;;;;;;4.80;1.23;;;4.50;88.50;;;;;;5068811;28;20040;-72
2022/03/06 10:27:46;;;;;;;2.47;1.27;;;4.30;88.80;;;;;;5068677;28;20040;-72
2022/03/06 10:30:34;;;;;;;2.67;1.17;;;4.50;88.20;;;;;;5099247;28;20044;-73
2022/03/06 10:33:08;;;;;;;2.55;1.02;;;4.70;91.40;;;;;;5067815;28;20040;-72
2022/03/06 10:35:39;;;;;;;3.00;1.00;;;4.70;86.70;;;;;;5065340;28;20076;-72
2022/03/06 10:38:28;;;;;;;4.38;1.15;;;4.60;87.90;;;;;;5067952;28;20039;-72
2022/03/06 10:40:57;;;;;;;1.70;0.85;;;4.80;90.30;;;;;;5066330;28;20039;-72
2022/03/06 10:43:31;;;;;;;3.10;1.13;;;4.80;88.00;;;;;;5069401;28;20044;-72
2022/03/06 10:46:13;;;;;;;5.28;0.98;;;4.80;88.30;;;;;;5066672;28;20532;-72
2022/03/06 10:48:40;;;;;;;3.40;0.93;;;4.90;86.20;;;;;;5066550;28;20043;-72
2022/03/06 10:51:11;;;;;;;3.88;1.00;;;5.00;87.20;;;;;;5068385;28;20044;-72
2022/03/06 10:53:37;;;;;;;3.13;1.00;;;4.90;84.20;;;;;;5099048;28;20055;-73
2022/03/06 10:56:15;;;;;;;2.83;0.88;;;5.00;87.50;;;;;;5065282;28;20055;-73
2022/03/06 10:58:43;;;;;;;2.35;0.90;;;5.30;86.60;;;;;;5067478;28;20119;-74
2022/03/06 11:01:10;;;;;;;4.32;1.15;;;5.10;84.30;;;;;;5068139;28;20117;-73
2022/03/06 11:03:36;;;;;;;3.80;1.02;;;5.40;87.40;;;;;;5067726;28;20117;-72
2022/03/06 11:06:07;;;;;;;2.50;1.00;;;5.50;85.90;;;;;;5068347;28;20082;-72
2022/03/06 11:08:34;;;;;;;4.95;1.10;;;5.50;85.20;;;;;;5068494;28;20040;-73
2022/03/06 11:11:03;;;;;;;3.85;1.65;;;5.60;85.70;;;;;;5068547;28;20049;-72
2022/03/06 11:13:36;;;;;;;3.20;1.10;;;5.40;80.90;;;;;;5070222;28;20048;-73
2022/03/06 11:16:02;;;;;;;1.98;0.95;;;5.00;81.60;;;;;;5045323;28;20041;-73
2022/03/06 11:18:29;;;;;;;2.63;1.10;;;5.10;83.00;;;;;;5066781;28;20032;-73
2022/03/06 11:20:56;;;;;;;2.83;1.27;;;5.20;86.00;;;;;;5078004;28;20391;-72
2022/03/06 11:23:40;;;;;;;4.00;1.27;;;5.40;86.60;;;;;;5069242;28;20576;-73
2022/03/06 11:26:15;;;;;;;1.88;0.90;;;5.70;88.80;;;;;;5065607;28;20044;-73
2022/03/06 11:28:43;;;;;;;3.55;1.13;;;5.40;83.50;;;;;;5066677;28;20108;-73
2022/03/06 11:31:10;;;;;;;3.28;1.38;;;5.40;82.00;;;;;;5069740;28;20052;-73
2022/03/06 11:33:40;;;;;;;2.78;1.30;;;5.40;86.10;;;;;;5072880;28;20091;-73
2022/03/06 11:36:23;;;;;;;3.08;1.10;;;5.60;86.30;;;;;;5066329;28;20044;-73
2022/03/06 11:38:50;;;;;;;2.20;1.08;;;5.40;82.10;;;;;;5069361;28;20040;-73
2022/03/06 11:41:16;;;;;;;4.05;1.27;;;5.60;85.30;;;;;;5099905;28;20051;-73
2022/03/06 11:43:53;;;;;;;6.60;1.60;;;5.60;83.70;;;;;;5067444;28;20036;-73
2022/03/06 11:46:21;;;;;;;4.13;1.50;;;5.60;81.90;;;;;;5067592;28;20052;-73
2022/03/06 11:48:48;;;;;;;3.83;1.33;;;5.60;82.90;;;;;;5064759;28;20040;-72
2022/03/06 11:51:23;;;;;;;2.03;1.00;;;5.60;84.50;;;;;;5060546;28;20048;-72
2022/03/06 11:53:55;;;;;;;6.13;1.17;;;5.60;84.40;;;;;;5066819;28;20087;-73
2022/03/06 11:56:39;;;;;;;2.03;1.30;;;5.60;82.80;;;;;;5048511;28;20041;-73
2022/03/06 11:59:18;;;;;;;3.95;1.90;;;5.60;81.70;;;;;;5066208;28;20671;-73
2022/03/06 12:02:07;;;;;;;3.72;1.30;;;5.90;88.30;;;;;;5068487;28;20095;-72
2022/03/06 12:04:37;;;;;;;2.60;1.42;;;5.90;83.40;;;;;;5067247;28;20052;-73
2022/03/06 12:07:08;;;;;;;3.88;1.95;;;5.90;84.50;;;;;;5067325;28;20040;-73
2022/03/06 12:09:40;;;;;;;2.15;1.20;;;6.10;84.70;;;;;;5067876;28;20037;-73
2022/03/06 12:12:11;;;;;;;4.57;1.25;;;5.90;83.60;;;;;;5066303;28;20049;-73
2022/03/06 12:14:39;;;;;;;6.03;1.38;;;6.00;84.30;;;;;;5063278;28;20483;-73
2022/03/06 12:17:06;;;;;;;8.13;1.40;;;6.30;86.30;;;;;;5043581;28;20082;-73
2022/03/06 12:19:43;;;;;;;2.90;1.10;;;6.40;85.90;;;;;;5068570;28;20143;-72
2022/03/06 12:22:21;;;;;;;4.45;1.73;;;6.40;80.80;;;;;;5066454;28;20474;-73
2022/03/06 12:25:14;;;;;;;2.83;1.27;;;6.30;83.70;;;;;;5098761;28;20040;-73
2022/03/06 12:27:42;;;;;;;2.38;1.42;;;6.20;80.80;;;;;;5067516;28;20051;-73
2022/03/06 12:30:10;;;;;;;3.97;1.27;;;6.00;83.10;;;;;;5065273;28;20059;-73
2022/03/06 12:32:39;;;;;;;4.47;1.13;;;6.00;80.40;;;;;;5066235;28;20032;-73
2022/03/06 12:35:06;;;;;;;4.28;1.25;;;6.30;88.50;;;;;;5068444;28;20028;-73
2022/03/06 12:37:43;;;;;;;6.07;1.42;;;6.30;82.90;;;;;;5068444;28;20036;-73
2022/03/06 12:40:15;;;;;;;4.25;1.40;;;6.50;85.70;;;;;;5062946;28;20048;-73
2022/03/06 12:42:43;;;;;;;4.05;1.50;;;6.40;83.30;;;;;;5097882;28;20071;-73
2022/03/06 12:45:11;;;;;;;3.05;1.30;;;6.20;86.00;;;;;;5068013;28;20042;-73
2022/03/06 12:47:38;;;;;;;5.78;1.40;;;6.00;85.00;;;;;;5065569;28;20087;-73
2022/03/06 12:50:07;;;;;;;2.55;1.27;;;6.20;85.80;;;;;;5069725;28;20123;-73
2022/03/06 12:52:33;;;;;;;4.25;1.60;;;6.40;84.80;;;;;;5086351;28;20044;-73